Time;durP1;ratioP1;P1;durP2;ratioP2;P2;SDS_P1;SDS_P2;PMS_P1;PMS_P2;Temp;Humidity;BMP_temperature;BMP_pressure;BME280_temperature;BME280_humidity;BME280_pressure;Samples;Min_cycle;Max_cycle;Signal;HPM_P1;HPM_P2
2022/05/08 00:02:08;;;;;;;12.60;7.20;;;;;;;;;;5024891;28;20029;-66
2022/05/08 00:04:34;;;;;;;12.32;7.68;;;;;;;;;;5024891;28;20451;-66
2022/05/08 00:07:00;;;;;;;14.25;7.20;;;;;;;;;;5024557;28;20076;-66
2022/05/08 00:09:25;;;;;;;14.55;7.45;;;;;;;;;;5023310;28;20029;-65
2022/05/08 00:11:52;;;;;;;14.35;7.15;;;;;;;;;;5020832;28;20088;-66
2022/05/08 00:14:17;;;;;;;10.77;7.15;;;;;;;;;;5024110;28;20503;-66
2022/05/08 00:16:42;;;;;;;15.82;7.00;;;;;;;;;;5025466;28;20057;-66
2022/05/08 00:19:08;;;;;;;14.48;7.10;;;;;;;;;;5022482;28;20129;-66
2022/05/08 00:21:33;;;;;;;11.82;6.63;;;;;;;;;;5025307;28;20017;-65
2022/05/08 00:23:58;;;;;;;15.27;7.70;;;;;;;;;;5023073;28;20347;-66
2022/05/08 00:26:23;;;;;;;15.80;7.65;;;;;;;;;;5019289;28;20044;-65
2022/05/08 00:28:50;;;;;;;17.02;7.45;;;;;;;;;;5024322;28;20050;-65
2022/05/08 00:31:15;;;;;;;15.65;7.93;;;;;;;;;;5023587;28;20029;-67
2022/05/08 00:33:41;;;;;;;15.15;8.02;;;;;;;;;;5026016;28;20044;-66
2022/05/08 00:36:07;;;;;;;19.48;8.60;;;;;;;;;;5023411;28;20380;-66
2022/05/08 00:38:32;;;;;;;14.93;7.75;;;;;;;;;;5024068;28;20476;-66
2022/05/08 00:40:58;;;;;;;16.05;7.82;;;;;;;;;;5023079;28;20496;-66
2022/05/08 00:43:34;;;;;;;13.45;7.65;;;;;;;;;;5004095;28;20029;-66
2022/05/08 00:46:00;;;;;;;16.52;8.02;;;;;;;;;;5025551;28;20115;-66
2022/05/08 00:48:26;;;;;;;19.17;8.23;;;;;;;;;;5022687;28;20030;-66
2022/05/08 00:50:52;;;;;;;16.63;7.97;;;;;;;;;;5028551;28;20044;-66
2022/05/08 00:53:17;;;;;;;17.15;7.07;;;;;;;;;;5022371;28;20520;-66
2022/05/08 00:55:43;;;;;;;17.90;7.70;;;;;;;;;;5023645;28;20017;-66
2022/05/08 00:58:09;;;;;;;18.05;8.13;;;;;;;;;;5020847;28;20025;-66
2022/05/08 01:00:34;;;;;;;20.52;8.15;;;;;;;;;;5022786;28;20104;-67
2022/05/08 01:02:59;;;;;;;14.85;7.13;;;;;;;;;;5023204;28;20116;-66
2022/05/08 01:05:24;;;;;;;14.30;7.32;;;;;;;;;;5024363;28;20420;-65
2022/05/08 01:07:50;;;;;;;18.00;7.75;;;;;;;;;;5025170;28;20465;-65
2022/05/08 01:10:16;;;;;;;18.30;7.68;;;;;;;;;;5022071;28;20087;-66
2022/05/08 01:12:44;;;;;;;17.95;7.60;;;;;;;;;;5021598;28;20052;-65
2022/05/08 01:15:19;;;;;;;10.88;7.90;;;;;;;;;;5022253;28;20041;-65
2022/05/08 01:17:44;;;;;;;22.00;8.00;;;;;;;;;;5022808;28;20038;-66
2022/05/08 01:20:10;;;;;;;18.55;7.03;;;;;;;;;;5024261;28;20537;-65
2022/05/08 01:22:36;;;;;;;15.27;7.07;;;;;;;;;;5006581;28;20025;-66
2022/05/08 01:25:02;;;;;;;23.45;8.25;;;;;;;;;;5024247;28;20383;-67
2022/05/08 01:27:27;;;;;;;26.33;7.45;;;;;;;;;;5019828;28;20037;-65
2022/05/08 01:29:52;;;;;;;20.33;7.22;;;;;;;;;;5025980;28;20152;-67
2022/05/08 01:32:19;;;;;;;16.98;7.13;;;;;;;;;;5023530;28;20476;-67
2022/05/08 01:34:44;;;;;;;18.40;6.38;;;;;;;;;;5023890;28;20092;-66
2022/05/08 01:37:10;;;;;;;22.02;7.53;;;;;;;;;;5025594;28;20517;-68
2022/05/08 01:39:35;;;;;;;17.90;6.78;;;;;;;;;;5021392;28;20526;-69
2022/05/08 01:42:02;;;;;;;19.48;7.00;;;;;;;;;;5022198;28;20072;-67
2022/05/08 01:44:28;;;;;;;22.58;6.55;;;;;;;;;;5024047;28;20439;-66
2022/05/08 01:48:21;;;;;;;20.73;7.47;;;;;;;;;;5024212;28;20472;-66
2022/05/08 01:49:38;;;;;;;17.95;6.63;;;;;;;;;;5025065;28;20152;-66
2022/05/08 01:52:04;;;;;;;14.30;5.55;;;;;;;;;;5025101;28;20135;-66
2022/05/08 01:54:29;;;;;;;20.92;6.20;;;;;;;;;;5020289;28;20149;-65
2022/05/08 01:56:54;;;;;;;16.73;6.07;;;;;;;;;;5021262;28;20025;-67
2022/05/08 01:59:19;;;;;;;18.90;5.88;;;;;;;;;;5024391;28;20025;-66
2022/05/08 02:01:46;;;;;;;20.00;6.63;;;;;;;;;;5024907;28;20021;-66
2022/05/08 02:04:15;;;;;;;17.63;5.35;;;;;;;;;;5024186;28;20379;-66
2022/05/08 02:06:44;;;;;;;21.90;6.18;;;;;;;;;;5006243;28;20104;-66
2022/05/08 02:09:09;;;;;;;20.65;5.95;;;;;;;;;;5025497;28;20487;-66
2022/05/08 02:11:34;;;;;;;21.05;6.55;;;;;;;;;;5018646;28;20324;-66
2022/05/08 02:14:00;;;;;;;18.65;5.30;;;;;;;;;;5023450;28;20065;-66
2022/05/08 02:16:25;;;;;;;18.58;5.22;;;;;;;;;;5022765;28;20025;-67
2022/05/08 02:18:51;;;;;;;15.48;5.72;;;;;;;;;;5024745;28;20508;-66
2022/05/08 02:21:17;;;;;;;14.90;4.95;;;;;;;;;;5024350;28;20112;-66
2022/05/08 02:23:42;;;;;;;15.43;5.00;;;;;;;;;;5020627;28;20104;-67
2022/05/08 02:26:07;;;;;;;19.83;5.10;;;;;;;;;;5020541;28;20472;-66
2022/05/08 02:28:32;;;;;;;19.77;5.30;;;;;;;;;;5022102;28;20571;-66
2022/05/08 02:30:58;;;;;;;16.88;5.20;;;;;;;;;;5022451;28;20116;-67
2022/05/08 02:33:23;;;;;;;21.00;5.40;;;;;;;;;;5022331;28;20038;-66
2022/05/08 02:35:48;;;;;;;17.65;5.32;;;;;;;;;;5026075;28;20025;-66
2022/05/08 02:38:14;;;;;;;20.70;5.65;;;;;;;;;;5022104;28;20053;-66
2022/05/08 02:40:40;;;;;;;22.60;5.43;;;;;;;;;;5020979;28;20026;-66
2022/05/08 02:43:05;;;;;;;17.25;5.15;;;;;;;;;;5020057;28;20032;-66
2022/05/08 02:45:30;;;;;;;22.25;5.32;;;;;;;;;;5021454;28;20025;-66
2022/05/08 02:47:56;;;;;;;24.13;5.60;;;;;;;;;;5022628;28;20026;-67
2022/05/08 02:50:22;;;;;;;21.77;5.07;;;;;;;;;;5022898;28;20026;-66
2022/05/08 02:52:47;;;;;;;24.10;5.50;;;;;;;;;;5023296;28;20025;-66
2022/05/08 03:00:42;;;;;;;16.55;4.60;;;;;;;;;;5023869;28;20215;-66
2022/05/08 03:03:08;;;;;;;20.38;5.10;;;;;;;;;;5022546;28;20368;-66
2022/05/08 03:05:34;;;;;;;20.08;5.35;;;;;;;;;;5023242;28;20456;-65
2022/05/08 03:08:01;;;;;;;21.70;5.47;;;;;;;;;;5023623;28;20018;-66
2022/05/08 03:10:28;;;;;;;18.30;4.47;;;;;;;;;;5020760;28;20038;-64
2022/05/08 03:12:54;;;;;;;20.35;5.30;;;;;;;;;;5002735;28;20032;-67
2022/05/08 03:15:20;;;;;;;18.55;6.00;;;;;;;;;;5023264;28;20025;-66
2022/05/08 03:17:45;;;;;;;24.20;4.63;;;;;;;;;;5021901;28;20025;-66
2022/05/08 03:20:11;;;;;;;19.75;4.80;;;;;;;;;;5023150;28;20021;-65
2022/05/08 03:22:36;;;;;;;22.25;5.00;;;;;;;;;;5004439;28;20017;-65
2022/05/08 03:25:02;;;;;;;13.65;4.70;;;;;;;;;;5021076;28;20024;-66
2022/05/08 03:27:27;;;;;;;18.02;4.40;;;;;;;;;;5017087;28;20022;-65
2022/05/08 03:29:52;;;;;;;19.50;4.53;;;;;;;;;;5024014;28;20369;-66
2022/05/08 03:32:17;;;;;;;19.58;5.03;;;;;;;;;;5024220;28;20061;-66
2022/05/08 03:34:43;;;;;;;18.95;4.35;;;;;;;;;;5022612;28;20402;-66
2022/05/08 03:37:08;;;;;;;22.50;4.55;;;;;;;;;;5022343;28;20026;-66
2022/05/08 03:39:33;;;;;;;16.30;4.95;;;;;;;;;;5018020;28;20460;-65
2022/05/08 03:41:58;;;;;;;16.13;4.82;;;;;;;;;;5019606;28;20017;-66
2022/05/08 03:44:24;;;;;;;23.80;4.70;;;;;;;;;;5022164;28;20488;-65
2022/05/08 03:46:50;;;;;;;17.95;4.10;;;;;;;;;;5005414;28;20507;-66
2022/05/08 03:49:15;;;;;;;16.40;4.45;;;;;;;;;;5005553;28;20030;-67
2022/05/08 03:51:41;;;;;;;20.05;5.10;;;;;;;;;;5021788;28;20459;-67
2022/05/08 03:54:09;;;;;;;20.95;5.00;;;;;;;;;;5020271;28;20564;-67
2022/05/08 03:56:35;;;;;;;22.65;5.53;;;;;;;;;;5018892;28;20029;-67
2022/05/08 03:59:00;;;;;;;24.67;5.30;;;;;;;;;;5022056;28;20017;-66
2022/05/08 04:01:26;;;;;;;23.70;5.18;;;;;;;;;;5020041;28;20025;-65
2022/05/08 04:03:51;;;;;;;17.42;4.70;;;;;;;;;;5003851;28;20037;-66
2022/05/08 04:06:16;;;;;;;18.40;4.88;;;;;;;;;;5022201;28;20119;-68
2022/05/08 04:08:42;;;;;;;20.50;5.32;;;;;;;;;;5019063;28;20071;-66
2022/05/08 04:11:07;;;;;;;22.42;4.85;;;;;;;;;;5017537;28;20025;-66
2022/05/08 04:13:32;;;;;;;18.58;4.50;;;;;;;;;;5021278;28;20105;-67
2022/05/08 04:16:16;;;;;;;18.10;4.53;;;;;;;;;;5020229;28;20437;-66
2022/05/08 04:18:41;;;;;;;20.63;5.00;;;;;;;;;;5020500;28;20037;-66
2022/05/08 04:21:06;;;;;;;21.58;5.15;;;;;;;;;;5023538;28;20025;-67
2022/05/08 04:26:16;;;;;;;18.02;4.80;;;;;;;;;;5020377;28;20495;-65
2022/05/08 04:28:41;;;;;;;16.42;5.10;;;;;;;;;;5019899;28;20099;-66
2022/05/08 04:31:07;;;;;;;21.30;5.55;;;;;;;;;;5022395;28;20041;-66
2022/05/08 04:33:33;;;;;;;22.25;5.30;;;;;;;;;;5023232;28;20091;-66
2022/05/08 04:35:58;;;;;;;22.17;5.43;;;;;;;;;;5023728;28;20383;-67
2022/05/08 04:38:23;;;;;;;18.63;4.80;;;;;;;;;;5023655;28;20339;-66
2022/05/08 04:40:49;;;;;;;20.38;5.72;;;;;;;;;;5024893;28;20029;-66
2022/05/08 04:43:15;;;;;;;21.00;5.50;;;;;;;;;;5021770;28;20435;-66
2022/05/08 04:45:40;;;;;;;24.75;5.70;;;;;;;;;;5024086;28;20029;-65
2022/05/08 04:48:05;;;;;;;16.20;5.55;;;;;;;;;;5026996;28;20056;-66
2022/05/08 04:50:31;;;;;;;19.77;5.40;;;;;;;;;;5025076;28;20025;-66
2022/05/08 04:52:56;;;;;;;21.25;5.60;;;;;;;;;;5005988;28;20566;-66
2022/05/08 04:55:22;;;;;;;19.75;4.95;;;;;;;;;;5005511;28;20021;-66
2022/05/08 04:57:47;;;;;;;18.75;4.72;;;;;;;;;;5019883;28;20021;-66
2022/05/08 05:00:13;;;;;;;22.02;5.93;;;;;;;;;;5007567;28;20391;-65
2022/05/08 05:02:38;;;;;;;20.60;5.10;;;;;;;;;;5023450;28;20071;-65
2022/05/08 05:05:06;;;;;;;13.30;4.22;;;;;;;;;;5024984;28;20079;-67
2022/05/08 05:07:33;;;;;;;23.42;4.90;;;;;;;;;;5005759;28;20190;-66
2022/05/08 05:09:58;;;;;;;26.50;5.28;;;;;;;;;;5023278;28;20031;-65
2022/05/08 05:12:24;;;;;;;23.90;5.60;;;;;;;;;;5022596;28;20026;-66
2022/05/08 05:14:49;;;;;;;20.20;5.88;;;;;;;;;;5024436;28;20033;-66
2022/05/08 05:17:14;;;;;;;18.73;5.72;;;;;;;;;;5008572;28;20042;-65
2022/05/08 05:19:39;;;;;;;29.90;5.50;;;;;;;;;;5024610;28;20111;-65
2022/05/08 05:22:05;;;;;;;21.00;5.63;;;;;;;;;;5024828;28;20028;-65
2022/05/08 05:24:31;;;;;;;22.70;5.72;;;;;;;;;;5021577;28;20039;-65
2022/05/08 05:26:56;;;;;;;22.27;5.68;;;;;;;;;;5020370;28;20030;-66
2022/05/08 05:29:22;;;;;;;20.23;6.10;;;;;;;;;;5025141;28;20124;-66
2022/05/08 05:31:47;;;;;;;23.80;5.90;;;;;;;;;;5021145;28;20029;-67
2022/05/08 05:34:12;;;;;;;22.95;6.00;;;;;;;;;;5023807;28;20018;-65
2022/05/08 05:36:37;;;;;;;24.90;5.85;;;;;;;;;;5022227;28;20056;-66
2022/05/08 05:39:04;;;;;;;19.58;5.57;;;;;;;;;;5023723;28;20021;-67
2022/05/08 05:41:29;;;;;;;20.27;5.80;;;;;;;;;;5023071;28;20021;-66
2022/05/08 05:43:54;;;;;;;16.70;5.35;;;;;;;;;;5022826;28;20033;-67
2022/05/08 05:49:04;;;;;;;20.50;5.75;;;;;;;;;;5024181;28;20040;-66
2022/05/08 05:51:29;;;;;;;20.75;5.32;;;;;;;;;;5025774;28;20026;-67
2022/05/08 05:53:54;;;;;;;23.05;5.15;;;;;;;;;;5027982;28;20494;-66
2022/05/08 05:56:19;;;;;;;17.90;4.75;;;;;;;;;;5022542;28;20053;-66
2022/05/08 05:58:45;;;;;;;22.73;5.18;;;;;;;;;;5020688;28;20083;-67
2022/05/08 06:01:10;;;;;;;19.08;4.80;;;;;;;;;;5023363;28;20052;-65
2022/05/08 06:03:38;;;;;;;14.98;4.80;;;;;;;;;;5022018;28;20021;-66
2022/05/08 06:06:03;;;;;;;16.27;4.35;;;;;;;;;;5025026;28;20017;-67
2022/05/08 06:08:28;;;;;;;16.05;4.65;;;;;;;;;;5022958;28;20033;-66
2022/05/08 06:10:54;;;;;;;20.77;4.72;;;;;;;;;;5021998;28;20327;-65
2022/05/08 06:13:21;;;;;;;17.77;4.32;;;;;;;;;;5022036;28;20022;-66
2022/05/08 06:15:46;;;;;;;19.52;5.10;;;;;;;;;;5024098;28;20476;-66
2022/05/08 06:18:12;;;;;;;17.05;4.82;;;;;;;;;;5023245;28;20080;-67
2022/05/08 06:20:38;;;;;;;14.82;4.55;;;;;;;;;;5024334;28;20470;-65
2022/05/08 06:23:04;;;;;;;19.73;5.88;;;;;;;;;;5021408;28;20325;-66
2022/05/08 06:25:30;;;;;;;18.00;4.80;;;;;;;;;;5006934;28;20103;-66
2022/05/08 06:27:56;;;;;;;23.83;5.00;;;;;;;;;;5018767;28;20017;-66
2022/05/08 06:30:21;;;;;;;19.42;4.80;;;;;;;;;;5023676;28;20139;-67
2022/05/08 06:32:46;;;;;;;25.20;5.85;;;;;;;;;;5024341;28;20029;-66
2022/05/08 06:35:11;;;;;;;22.08;4.88;;;;;;;;;;5025698;28;20064;-66
2022/05/08 06:37:41;;;;;;;17.92;4.55;;;;;;;;;;5024295;28;20025;-67
2022/05/08 06:40:06;;;;;;;17.33;5.05;;;;;;;;;;5005800;28;20045;-66
2022/05/08 06:42:32;;;;;;;14.93;4.32;;;;;;;;;;5019994;28;20505;-66
2022/05/08 06:44:58;;;;;;;18.65;5.35;;;;;;;;;;5023228;28;20499;-66
2022/05/08 06:47:23;;;;;;;20.08;5.60;;;;;;;;;;5023841;28;20113;-66
2022/05/08 06:49:48;;;;;;;21.70;5.63;;;;;;;;;;5024575;28;20417;-66
2022/05/08 06:52:13;;;;;;;13.98;5.10;;;;;;;;;;5023954;28;20040;-66
2022/05/08 06:54:39;;;;;;;18.60;5.53;;;;;;;;;;5006092;28;20045;-65
2022/05/08 06:57:05;;;;;;;16.38;4.97;;;;;;;;;;5018512;28;20090;-65
2022/05/08 07:02:15;;;;;;;18.42;5.85;;;;;;;;;;5024225;28;20116;-64
2022/05/08 07:04:40;;;;;;;14.73;5.43;;;;;;;;;;5024024;28;20148;-67
2022/05/08 07:07:06;;;;;;;17.25;5.53;;;;;;;;;;5022369;28;20102;-66
2022/05/08 07:09:32;;;;;;;22.67;5.93;;;;;;;;;;5022547;28;20460;-65
2022/05/08 07:11:58;;;;;;;20.83;5.20;;;;;;;;;;5017506;28;20571;-66
2022/05/08 07:14:23;;;;;;;17.27;5.03;;;;;;;;;;5024628;28;20072;-66
2022/05/08 07:16:48;;;;;;;13.98;4.90;;;;;;;;;;5023228;28;20277;-66
2022/05/08 07:19:13;;;;;;;18.48;4.85;;;;;;;;;;5023573;28;20036;-67
2022/05/08 07:21:39;;;;;;;13.40;4.47;;;;;;;;;;5023789;28;20029;-64
2022/05/08 07:24:04;;;;;;;15.75;4.20;;;;;;;;;;5019055;28;20470;-65
2022/05/08 07:26:30;;;;;;;13.75;4.25;;;;;;;;;;5018025;28;20025;-66
2022/05/08 07:28:55;;;;;;;17.48;4.63;;;;;;;;;;5020978;28;20033;-68
2022/05/08 07:31:21;;;;;;;14.65;4.28;;;;;;;;;;5022039;28;20487;-66
2022/05/08 07:33:46;;;;;;;15.10;4.82;;;;;;;;;;5021455;28;20489;-66
2022/05/08 07:36:15;;;;;;;15.05;4.80;;;;;;;;;;5004880;28;20088;-66
2022/05/08 07:38:40;;;;;;;20.08;4.93;;;;;;;;;;5020614;28;20244;-66
2022/05/08 07:41:06;;;;;;;13.98;4.88;;;;;;;;;;5013801;28;20331;-67
2022/05/08 07:43:31;;;;;;;16.38;4.22;;;;;;;;;;5020179;28;20155;-66
2022/05/08 07:45:57;;;;;;;19.73;4.60;;;;;;;;;;5020448;28;20468;-66
2022/05/08 07:48:22;;;;;;;8.82;3.55;;;;;;;;;;5021333;28;20076;-67
2022/05/08 07:50:48;;;;;;;17.15;4.15;;;;;;;;;;5021241;28;20643;-65
2022/05/08 07:53:14;;;;;;;16.27;4.00;;;;;;;;;;5001072;28;20018;-65
2022/05/08 07:55:39;;;;;;;11.90;3.70;;;;;;;;;;5020393;28;20029;-65
2022/05/08 07:58:05;;;;;;;12.90;4.35;;;;;;;;;;5016934;28;20171;-66
2022/05/08 08:00:30;;;;;;;12.27;3.97;;;;;;;;;;5024167;28;20044;-66
2022/05/08 08:02:56;;;;;;;14.25;4.05;;;;;;;;;;5020447;28;20022;-66
2022/05/08 08:05:21;;;;;;;13.65;3.72;;;;;;;;;;5020643;28;20408;-67
2022/05/08 08:07:47;;;;;;;13.68;3.92;;;;;;;;;;5026892;28;20033;-66
2022/05/08 08:10:13;;;;;;;13.77;4.10;;;;;;;;;;5020586;28;20104;-65
2022/05/08 08:12:38;;;;;;;8.77;3.10;;;;;;;;;;5023373;28;20033;-66
2022/05/08 08:15:03;;;;;;;12.90;4.03;;;;;;;;;;5024756;28;20037;-66
2022/05/08 08:17:29;;;;;;;15.57;3.75;;;;;;;;;;5025091;28;20033;-66
2022/05/08 08:19:54;;;;;;;16.42;4.03;;;;;;;;;;5025172;28;20502;-66
2022/05/08 08:22:21;;;;;;;19.27;3.70;;;;;;;;;;5025331;28;20504;-67
2022/05/08 08:24:46;;;;;;;15.75;4.18;;;;;;;;;;5023129;28;20021;-66
2022/05/08 08:27:12;;;;;;;17.75;3.80;;;;;;;;;;5021156;28;20021;-66
2022/05/08 08:29:38;;;;;;;13.48;3.17;;;;;;;;;;5024313;28;20107;-67
2022/05/08 08:32:03;;;;;;;12.77;3.22;;;;;;;;;;5022776;28;20240;-67
2022/05/08 08:34:28;;;;;;;11.10;3.22;;;;;;;;;;5022746;28;20457;-67
2022/05/08 08:36:54;;;;;;;9.88;3.83;;;;;;;;;;5025189;28;20031;-66
2022/05/08 08:39:19;;;;;;;9.95;3.70;;;;;;;;;;5005596;28;20025;-66
2022/05/08 08:41:52;;;;;;;15.18;3.28;;;;;;;;;;5019316;28;20056;-66
2022/05/08 08:50:08;;;;;;;16.70;3.08;;;;;;;;;;5026748;28;20044;-66
2022/05/08 08:52:34;;;;;;;13.82;3.70;;;;;;;;;;5025094;28;20025;-65
2022/05/08 08:54:59;;;;;;;16.10;3.80;;;;;;;;;;5021104;28;20074;-67
2022/05/08 08:57:25;;;;;;;15.02;3.47;;;;;;;;;;5023586;28;20069;-67
2022/05/08 08:59:50;;;;;;;8.77;3.22;;;;;;;;;;5025950;28;20030;-65
2022/05/08 09:02:17;;;;;;;9.35;3.17;;;;;;;;;;5021108;28;20033;-66
2022/05/08 09:04:44;;;;;;;12.35;3.28;;;;;;;;;;5025982;28;20036;-66
2022/05/08 09:07:35;;;;;;;12.43;3.72;;;;;;;;;;5023523;28;20076;-67
2022/05/08 09:10:07;;;;;;;9.00;3.20;;;;;;;;;;5022545;28;20025;-66
2022/05/08 09:12:32;;;;;;;9.52;3.10;;;;;;;;;;5021936;28;20033;-66
2022/05/08 09:14:58;;;;;;;8.73;2.70;;;;;;;;;;5023576;28;20026;-66
2022/05/08 09:17:23;;;;;;;10.20;3.05;;;;;;;;;;5021818;28;20377;-66
2022/05/08 09:19:48;;;;;;;13.40;3.20;;;;;;;;;;5025433;28;20280;-66
2022/05/08 09:22:17;;;;;;;12.40;3.38;;;;;;;;;;5021425;28;20026;-67
2022/05/08 09:24:52;;;;;;;10.38;2.90;;;;;;;;;;5022894;28;20060;-67
2022/05/08 09:27:18;;;;;;;9.75;3.30;;;;;;;;;;5021389;28;20364;-66
2022/05/08 09:29:44;;;;;;;12.82;3.63;;;;;;;;;;5027117;28;20512;-68
2022/05/08 09:32:10;;;;;;;10.00;3.42;;;;;;;;;;5022501;28;20028;-67
2022/05/08 09:34:55;;;;;;;8.07;2.75;;;;;;;;;;5023262;28;20020;-67
2022/05/08 09:37:20;;;;;;;12.70;3.10;;;;;;;;;;5021667;28;20017;-66
2022/05/08 09:39:45;;;;;;;10.52;3.10;;;;;;;;;;5023860;28;20475;-66
2022/05/08 09:42:37;;;;;;;9.23;2.70;;;;;;;;;;5021444;28;20033;-67
2022/05/08 09:45:04;;;;;;;9.68;2.92;;;;;;;;;;5022742;28;20072;-66
2022/05/08 09:47:43;;;;;;;10.73;2.90;;;;;;;;;;5026183;28;20040;-66
2022/05/08 09:50:09;;;;;;;8.82;3.10;;;;;;;;;;5023868;28;20031;-66
2022/05/08 09:52:38;;;;;;;8.25;2.63;;;;;;;;;;5006980;28;20025;-66
2022/05/08 09:55:03;;;;;;;11.43;3.30;;;;;;;;;;5022604;28;20104;-67
2022/05/08 09:57:28;;;;;;;11.63;3.30;;;;;;;;;;5020527;28;20120;-66
2022/05/08 09:59:54;;;;;;;10.70;3.10;;;;;;;;;;5024514;28;20021;-66
2022/05/08 10:02:20;;;;;;;10.48;2.95;;;;;;;;;;5022675;28;20563;-65
2022/05/08 10:04:46;;;;;;;9.23;2.58;;;;;;;;;;5024997;28;20029;-66
2022/05/08 10:07:13;;;;;;;10.35;3.65;;;;;;;;;;5022815;28;20029;-65
2022/05/08 10:15:17;;;;;;;10.85;2.42;;;;;;;;;;5022748;28;20036;-65
2022/05/08 10:17:42;;;;;;;12.48;3.42;;;;;;;;;;5021328;28;20684;-67
2022/05/08 10:20:08;;;;;;;8.45;2.80;;;;;;;;;;5023906;28;20113;-67
2022/05/08 10:22:47;;;;;;;10.45;3.35;;;;;;;;;;5023028;28;20373;-66
2022/05/08 10:25:16;;;;;;;12.80;2.97;;;;;;;;;;5021213;28;20052;-67
2022/05/08 10:28:01;;;;;;;7.22;2.25;;;;;;;;;;5019582;28;20021;-66
2022/05/08 10:30:27;;;;;;;10.38;3.20;;;;;;;;;;5021656;28;20045;-66
2022/05/08 10:32:53;;;;;;;7.32;2.75;;;;;;;;;;5006615;28;20488;-67
2022/05/08 10:35:20;;;;;;;9.32;3.20;;;;;;;;;;5023408;28;20039;-67
2022/05/08 10:37:51;;;;;;;8.88;3.05;;;;;;;;;;5022783;28;20139;-66
2022/05/08 10:40:23;;;;;;;10.43;2.72;;;;;;;;;;5021907;28;20051;-67
2022/05/08 10:42:54;;;;;;;10.25;3.15;;;;;;;;;;5019166;28;20128;-66
2022/05/08 10:45:32;;;;;;;8.18;2.50;;;;;;;;;;5022065;28;20140;-66
2022/05/08 10:47:58;;;;;;;9.23;2.90;;;;;;;;;;5023320;28;20017;-66
2022/05/08 10:50:24;;;;;;;8.10;2.63;;;;;;;;;;5020281;28;20462;-67
2022/05/08 10:52:50;;;;;;;7.10;2.70;;;;;;;;;;5020248;28;20071;-68
2022/05/08 10:55:16;;;;;;;6.80;2.67;;;;;;;;;;5020801;28;20508;-67
2022/05/08 10:57:43;;;;;;;7.50;2.22;;;;;;;;;;5017089;28;20025;-68
2022/05/08 11:00:10;;;;;;;8.75;2.95;;;;;;;;;;5020440;28;20096;-67
2022/05/08 11:02:47;;;;;;;8.13;2.58;;;;;;;;;;5017403;28;20025;-65
2022/05/08 11:05:21;;;;;;;9.95;2.65;;;;;;;;;;5018391;28;20036;-65
2022/05/08 11:07:50;;;;;;;9.15;2.40;;;;;;;;;;5023225;28;20025;-67
2022/05/08 11:10:15;;;;;;;6.97;2.75;;;;;;;;;;5018694;28;20542;-68
2022/05/08 11:12:56;;;;;;;8.07;2.53;;;;;;;;;;5015500;28;20045;-66
2022/05/08 11:15:22;;;;;;;7.68;2.58;;;;;;;;;;5020569;28;20101;-65
2022/05/08 11:18:02;;;;;;;7.60;2.78;;;;;;;;;;5020426;28;20072;-65
2022/05/08 11:20:27;;;;;;;7.95;2.85;;;;;;;;;;5020245;28;20078;-65
2022/05/08 11:22:56;;;;;;;9.13;2.67;;;;;;;;;;5022570;28;20053;-65
2022/05/08 11:25:21;;;;;;;5.22;2.30;;;;;;;;;;5020914;28;20116;-67
2022/05/08 11:27:51;;;;;;;8.45;2.70;;;;;;;;;;5018018;28;20036;-65
2022/05/08 11:30:25;;;;;;;7.18;2.72;;;;;;;;;;5018668;28;20164;-65
2022/05/08 11:38:18;;;;;;;7.32;2.20;;;;;;;;;;5019919;28;20348;-66
2022/05/08 11:40:44;;;;;;;9.25;2.90;;;;;;;;;;5020355;28;20053;-65
2022/05/08 11:43:10;;;;;;;7.13;2.53;;;;;;;;;;5018491;28;20029;-66
2022/05/08 11:45:35;;;;;;;8.43;2.63;;;;;;;;;;5004515;28;20421;-65
2022/05/08 11:48:01;;;;;;;7.80;2.35;;;;;;;;;;5021400;28;20052;-65
2022/05/08 11:50:26;;;;;;;12.13;2.60;;;;;;;;;;5004813;28;20119;-65
2022/05/08 11:53:02;;;;;;;9.63;2.58;;;;;;;;;;5021133;28;20021;-64
2022/05/08 11:55:41;;;;;;;10.77;3.47;;;;;;;;;;5004387;28;20037;-64
2022/05/08 11:58:06;;;;;;;7.63;2.78;;;;;;;;;;5019825;28;20014;-66
2022/05/08 12:00:31;;;;;;;12.65;2.53;;;;;;;;;;5022393;28;20480;-66
2022/05/08 12:02:57;;;;;;;7.45;2.65;;;;;;;;;;5006558;28;20480;-66
2022/05/08 12:05:23;;;;;;;6.97;2.60;;;;;;;;;;5004267;28;20029;-67
2022/05/08 12:07:48;;;;;;;8.75;2.50;;;;;;;;;;5021571;28;20620;-65
2022/05/08 12:10:14;;;;;;;8.43;2.63;;;;;;;;;;5021040;28;20500;-67
2022/05/08 12:12:41;;;;;;;8.48;2.60;;;;;;;;;;5017909;28;20527;-66
2022/05/08 12:15:06;;;;;;;6.65;2.20;;;;;;;;;;5023578;28;20395;-65
2022/05/08 12:17:44;;;;;;;11.00;2.60;;;;;;;;;;5021106;28;20147;-66
2022/05/08 12:20:09;;;;;;;6.95;2.50;;;;;;;;;;5022489;28;20017;-65
2022/05/08 12:22:35;;;;;;;9.10;2.63;;;;;;;;;;5020235;28;20420;-64
2022/05/08 12:25:00;;;;;;;11.98;2.72;;;;;;;;;;5019393;28;20105;-66
2022/05/08 12:27:26;;;;;;;9.85;2.63;;;;;;;;;;5019709;28;20104;-65
2022/05/08 12:29:53;;;;;;;12.07;2.45;;;;;;;;;;5022825;28;20049;-65
2022/05/08 12:32:19;;;;;;;8.70;2.53;;;;;;;;;;5019441;28;20026;-66
2022/05/08 12:34:44;;;;;;;9.93;2.42;;;;;;;;;;5024116;28;20025;-64
2022/05/08 12:37:14;;;;;;;14.88;2.58;;;;;;;;;;5022557;28;20738;-65
2022/05/08 12:39:39;;;;;;;6.47;2.70;;;;;;;;;;5003362;28;20017;-66
2022/05/08 12:42:05;;;;;;;9.95;2.53;;;;;;;;;;5016430;28;20464;-65
2022/05/08 12:44:31;;;;;;;10.10;2.47;;;;;;;;;;5023102;28;20171;-65
2022/05/08 12:46:56;;;;;;;10.07;2.72;;;;;;;;;;5021336;28;20105;-65
2022/05/08 12:49:21;;;;;;;13.18;2.78;;;;;;;;;;5019893;28;20025;-66
2022/05/08 12:51:47;;;;;;;9.32;2.40;;;;;;;;;;5021708;28;20455;-68
2022/05/08 12:54:12;;;;;;;9.45;2.90;;;;;;;;;;5023897;28;20040;-66
2022/05/08 12:56:37;;;;;;;12.95;3.08;;;;;;;;;;5020514;28;20300;-65
2022/05/08 13:01:48;;;;;;;9.90;2.13;;;;;;;;;;5024589;28;20112;-65
2022/05/08 13:04:15;;;;;;;9.52;2.75;;;;;;;;;;5022504;28;20028;-64
2022/05/08 13:06:41;;;;;;;14.38;3.22;;;;;;;;;;5007279;28;20052;-64
2022/05/08 13:09:06;;;;;;;6.68;2.38;;;;;;;;;;5023782;28;20435;-64
2022/05/08 13:11:32;;;;;;;9.77;2.63;;;;;;;;;;5019667;28;20440;-65
2022/05/08 13:13:57;;;;;;;10.25;2.53;;;;;;;;;;5024844;28;20033;-64
2022/05/08 13:16:23;;;;;;;10.38;2.53;;;;;;;;;;5021967;28;20475;-62
2022/05/08 13:18:49;;;;;;;8.32;2.00;;;;;;;;;;5006302;28;20440;-64
2022/05/08 13:21:14;;;;;;;14.45;2.70;;;;;;;;;;5026148;28;20198;-64
2022/05/08 13:23:40;;;;;;;8.40;2.50;;;;;;;;;;5020757;28;20450;-64
2022/05/08 13:26:05;;;;;;;10.57;2.50;;;;;;;;;;5021158;28;20497;-65
2022/05/08 13:28:32;;;;;;;8.95;2.65;;;;;;;;;;5022990;28;20064;-64
2022/05/08 13:30:58;;;;;;;10.23;2.47;;;;;;;;;;5024062;28;20467;-65
2022/05/08 13:33:24;;;;;;;11.90;2.47;;;;;;;;;;5021913;28;20513;-64
2022/05/08 13:35:50;;;;;;;9.15;2.17;;;;;;;;;;5024400;28;20452;-64
2022/05/08 13:38:18;;;;;;;7.30;2.35;;;;;;;;;;5005596;28;20440;-63
2022/05/08 13:40:44;;;;;;;10.45;2.63;;;;;;;;;;5022724;28;20017;-64
2022/05/08 13:43:09;;;;;;;10.07;2.53;;;;;;;;;;5022690;28;20032;-65
2022/05/08 13:45:34;;;;;;;15.90;2.85;;;;;;;;;;5023785;28;20053;-65
2022/05/08 13:47:59;;;;;;;9.93;2.78;;;;;;;;;;5018885;28;20072;-67
2022/05/08 13:50:25;;;;;;;9.13;2.30;;;;;;;;;;5003320;28;20067;-66
2022/05/08 13:52:51;;;;;;;6.13;2.47;;;;;;;;;;5002883;28;20033;-67
2022/05/08 13:55:17;;;;;;;10.18;3.00;;;;;;;;;;5019139;28;20029;-66
2022/05/08 13:57:43;;;;;;;8.50;2.53;;;;;;;;;;4998873;28;20252;-69
2022/05/08 14:00:14;;;;;;;10.95;3.30;;;;;;;;;;5014640;28;20108;-67
2022/05/08 14:02:39;;;;;;;14.55;3.95;;;;;;;;;;5015827;28;20022;-66
2022/05/08 14:05:04;;;;;;;11.68;3.08;;;;;;;;;;5019104;28;20036;-68
2022/05/08 14:07:30;;;;;;;10.25;2.30;;;;;;;;;;5021104;28;20029;-67
2022/05/08 14:09:56;;;;;;;10.20;2.58;;;;;;;;;;5018877;28;20025;-67
2022/05/08 14:12:22;;;;;;;11.68;2.70;;;;;;;;;;5011706;28;20106;-68
2022/05/08 14:14:48;;;;;;;8.32;2.22;;;;;;;;;;5016989;28;20481;-66
2022/05/08 14:17:14;;;;;;;9.60;2.60;;;;;;;;;;5019243;28;20029;-67
2022/05/08 14:19:39;;;;;;;9.95;2.60;;;;;;;;;;5009093;28;20167;-66
2022/05/08 14:22:04;;;;;;;8.13;2.40;;;;;;;;;;5019192;28;20022;-65
2022/05/08 14:24:29;;;;;;;7.78;2.65;;;;;;;;;;5017735;28;20580;-64
2022/05/08 14:26:55;;;;;;;6.50;2.40;;;;;;;;;;5018321;28;20040;-65
2022/05/08 14:29:20;;;;;;;6.50;2.50;;;;;;;;;;5022196;28;20058;-65
2022/05/08 14:37:13;;;;;;;9.40;2.53;;;;;;;;;;5022550;28;20404;-64
2022/05/08 14:39:38;;;;;;;12.85;2.97;;;;;;;;;;5017046;28;20477;-65
2022/05/08 14:42:04;;;;;;;12.50;2.97;;;;;;;;;;5020868;28;20491;-66
2022/05/08 14:44:29;;;;;;;7.97;2.85;;;;;;;;;;5021299;28;20125;-65
2022/05/08 14:46:55;;;;;;;11.07;3.05;;;;;;;;;;5005238;28;20535;-65
2022/05/08 14:49:20;;;;;;;7.18;2.70;;;;;;;;;;5022766;28;20116;-64
2022/05/08 14:51:45;;;;;;;7.20;2.60;;;;;;;;;;5020618;28;20044;-64
2022/05/08 14:54:11;;;;;;;10.07;2.85;;;;;;;;;;5020016;28;20041;-65
2022/05/08 14:56:36;;;;;;;8.73;2.90;;;;;;;;;;5016092;28;20036;-64
2022/05/08 14:59:01;;;;;;;8.30;2.72;;;;;;;;;;5020727;28;20418;-63
2022/05/08 15:01:28;;;;;;;9.35;2.58;;;;;;;;;;5021571;28;20025;-66
2022/05/08 15:03:53;;;;;;;10.00;2.65;;;;;;;;;;5003102;28;20091;-64
2022/05/08 15:06:20;;;;;;;9.07;2.67;;;;;;;;;;5023496;28;20017;-65
2022/05/08 15:08:46;;;;;;;11.60;2.88;;;;;;;;;;5017551;28;20281;-65